sensor_id;sensor_type;location;lat;lon;timestamp;temperature;humidity
13694;DHT22;6919;52.344;14.518;2022-10-31T00:01:31;13.20;99.90
13694;DHT22;6919;52.344;14.518;2022-10-31T00:04:00;13.10;99.90
13694;DHT22;6919;52.344;14.518;2022-10-31T00:06:29;13.00;99.90
13694;DHT22;6919;52.344;14.518;2022-10-31T00:08:58;13.10;99.90
13694;DHT22;6919;52.344;14.518;2022-10-31T00:11:28;12.80;99.90
13694;DHT22;6919;52.344;14.518;2022-10-31T00:13:56;12.70;99.90
13694;DHT22;6919;52.344;14.518;2022-10-31T00:16:27;12.60;99.90
13694;DHT22;6919;52.344;14.518;2022-10-31T00:18:58;12.40;99.90
13694;DHT22;6919;52.344;14.518;2022-10-31T00:21:29;12.20;99.90
13694;DHT22;6919;52.344;14.518;2022-10-31T00:23:58;12.10;99.90
13694;DHT22;6919;52.344;14.518;2022-10-31T00:26:27;12.00;99.90
13694;DHT22;6919;52.344;14.518;2022-10-31T00:28:56;11.90;99.90
13694;DHT22;6919;52.344;14.518;2022-10-31T00:31:26;11.80;99.90
13694;DHT22;6919;52.344;14.518;2022-10-31T00:33:54;11.80;99.90
13694;DHT22;6919;52.344;14.518;2022-10-31T00:36:22;11.80;99.90
13694;DHT22;6919;52.344;14.518;2022-10-31T00:38:50;11.80;99.90
13694;DHT22;6919;52.344;14.518;2022-10-31T00:41:18;11.90;99.90
13694;DHT22;6919;52.344;14.518;2022-10-31T00:43:46;11.90;99.90
13694;DHT22;6919;52.344;14.518;2022-10-31T00:46:15;11.90;99.90
13694;DHT22;6919;52.344;14.518;2022-10-31T00:48:44;12.00;99.90
13694;DHT22;6919;52.344;14.518;2022-10-31T00:51:12;12.10;99.90
13694;DHT22;6919;52.344;14.518;2022-10-31T00:53:40;12.30;99.90
13694;DHT22;6919;52.344;14.518;2022-10-31T00:56:08;12.30;99.90
13694;DHT22;6919;52.344;14.518;2022-10-31T00:58:37;12.40;99.90
13694;DHT22;6919;52.344;14.518;2022-10-31T01:01:05;12.40;99.90
13694;DHT22;6919;52.344;14.518;2022-10-31T01:03:33;12.40;99.90
13694;DHT22;6919;52.344;14.518;2022-10-31T01:06:06;12.40;99.90
13694;DHT22;6919;52.344;14.518;2022-10-31T01:08:35;12.40;99.90
13694;DHT22;6919;52.344;14.518;2022-10-31T01:11:07;12.50;99.90
13694;DHT22;6919;52.344;14.518;2022-10-31T01:13:37;12.40;99.90
13694;DHT22;6919;52.344;14.518;2022-10-31T01:16:08;12.50;99.90
13694;DHT22;6919;52.344;14.518;2022-10-31T01:18:38;12.50;99.90
13694;DHT22;6919;52.344;14.518;2022-10-31T01:21:10;12.50;99.90
13694;DHT22;6919;52.344;14.518;2022-10-31T01:23:39;12.50;99.90
13694;DHT22;6919;52.344;14.518;2022-10-31T01:26:09;12.50;99.90
13694;DHT22;6919;52.344;14.518;2022-10-31T01:28:44;12.50;99.90
13694;DHT22;6919;52.344;14.518;2022-10-31T01:31:14;12.40;99.90
13694;DHT22;6919;52.344;14.518;2022-10-31T01:33:43;12.50;99.90
13694;DHT22;6919;52.344;14.518;2022-10-31T01:36:15;12.50;99.90
13694;DHT22;6919;52.344;14.518;2022-10-31T01:38:45;12.50;99.90
13694;DHT22;6919;52.344;14.518;2022-10-31T01:41:16;12.40;99.90
13694;DHT22;6919;52.344;14.518;2022-10-31T01:43:49;12.40;99.90
13694;DHT22;6919;52.344;14.518;2022-10-31T01:46:22;12.40;99.90
13694;DHT22;6919;52.344;14.518;2022-10-31T01:48:53;12.30;99.90
13694;DHT22;6919;52.344;14.518;2022-10-31T01:51:29;12.40;99.90
13694;DHT22;6919;52.344;14.518;2022-10-31T01:54:06;12.30;99.90
13694;DHT22;6919;52.344;14.518;2022-10-31T01:56:41;12.20;99.90
13694;DHT22;6919;52.344;14.518;2022-10-31T01:59:14;12.40;99.90
13694;DHT22;6919;52.344;14.518;2022-10-31T02:01:46;12.30;99.90
13694;DHT22;6919;52.344;14.518;2022-10-31T02:04:16;12.30;99.90
13694;DHT22;6919;52.344;14.518;2022-10-31T02:06:49;12.20;99.90
13694;DHT22;6919;52.344;14.518;2022-10-31T02:09:23;12.20;99.90
13694;DHT22;6919;52.344;14.518;2022-10-31T02:11:54;12.20;99.90
13694;DHT22;6919;52.344;14.518;2022-10-31T02:14:27;12.10;99.90
13694;DHT22;6919;52.344;14.518;2022-10-31T02:16:57;12.10;99.90
13694;DHT22;6919;52.344;14.518;2022-10-31T02:19:30;12.00;99.90
13694;DHT22;6919;52.344;14.518;2022-10-31T02:22:13;11.90;99.90
13694;DHT22;6919;52.344;14.518;2022-10-31T02:24:59;11.90;99.90
13694;DHT22;6919;52.344;14.518;2022-10-31T02:27:56;11.80;99.90
13694;DHT22;6919;52.344;14.518;2022-10-31T02:30:52;11.80;99.90
13694;DHT22;6919;52.344;14.518;2022-10-31T02:33:32;11.70;99.90
13694;DHT22;6919;52.344;14.518;2022-10-31T02:36:11;11.70;99.90
13694;DHT22;6919;52.344;14.518;2022-10-31T02:38:53;11.70;99.90
13694;DHT22;6919;52.344;14.518;2022-10-31T02:41:34;11.60;99.90
13694;DHT22;6919;52.344;14.518;2022-10-31T02:44:15;11.60;99.90
13694;DHT22;6919;52.344;14.518;2022-10-31T02:46:52;11.50;99.90
13694;DHT22;6919;52.344;14.518;2022-10-31T02:49:30;11.50;99.90
13694;DHT22;6919;52.344;14.518;2022-10-31T02:52:14;11.50;99.90
13694;DHT22;6919;52.344;14.518;2022-10-31T02:54:46;11.50;99.90
13694;DHT22;6919;52.344;14.518;2022-10-31T02:57:18;11.60;99.90
13694;DHT22;6919;52.344;14.518;2022-10-31T02:59:53;11.60;99.90
13694;DHT22;6919;52.344;14.518;2022-10-31T03:02:50;11.50;99.90
13694;DHT22;6919;52.344;14.518;2022-10-31T03:05:35;11.40;99.90
13694;DHT22;6919;52.344;14.518;2022-10-31T03:08:16;11.30;99.90
13694;DHT22;6919;52.344;14.518;2022-10-31T03:10:54;11.30;99.90
13694;DHT22;6919;52.344;14.518;2022-10-31T03:13:34;11.30;99.90
13694;DHT22;6919;52.344;14.518;2022-10-31T03:16:10;11.30;99.90
13694;DHT22;6919;52.344;14.518;2022-10-31T03:18:49;11.30;99.90
13694;DHT22;6919;52.344;14.518;2022-10-31T03:21:22;11.30;99.90
13694;DHT22;6919;52.344;14.518;2022-10-31T03:23:56;11.20;99.90
13694;DHT22;6919;52.344;14.518;2022-10-31T03:26:26;11.20;99.90
13694;DHT22;6919;52.344;14.518;2022-10-31T03:28:58;11.20;99.90
13694;DHT22;6919;52.344;14.518;2022-10-31T03:31:33;11.20;99.90
13694;DHT22;6919;52.344;14.518;2022-10-31T03:34:08;11.10;99.90
13694;DHT22;6919;52.344;14.518;2022-10-31T03:36:40;11.20;99.90
13694;DHT22;6919;52.344;14.518;2022-10-31T03:39:13;11.20;99.90
13694;DHT22;6919;52.344;14.518;2022-10-31T03:41:53;11.10;99.90
13694;DHT22;6919;52.344;14.518;2022-10-31T03:44:24;11.20;99.90
13694;DHT22;6919;52.344;14.518;2022-10-31T03:46:57;11.10;99.90
13694;DHT22;6919;52.344;14.518;2022-10-31T03:49:27;11.10;99.90
13694;DHT22;6919;52.344;14.518;2022-10-31T03:52:01;11.10;99.90
13694;DHT22;6919;52.344;14.518;2022-10-31T03:54:39;11.10;99.90
13694;DHT22;6919;52.344;14.518;2022-10-31T03:57:16;11.10;99.90
13694;DHT22;6919;52.344;14.518;2022-10-31T03:59:53;11.00;99.90
13694;DHT22;6919;52.344;14.518;2022-10-31T04:02:28;10.90;99.90
13694;DHT22;6919;52.344;14.518;2022-10-31T04:05:00;10.90;99.90
13694;DHT22;6919;52.344;14.518;2022-10-31T04:07:34;10.70;99.90
13694;DHT22;6919;52.344;14.518;2022-10-31T04:10:10;10.70;99.90
13694;DHT22;6919;52.344;14.518;2022-10-31T04:12:41;10.60;99.90
13694;DHT22;6919;52.344;14.518;2022-10-31T04:15:12;10.60;99.90
13694;DHT22;6919;52.344;14.518;2022-10-31T04:17:42;10.60;99.90
13694;DHT22;6919;52.344;14.518;2022-10-31T04:20:17;10.60;99.90
13694;DHT22;6919;52.344;14.518;2022-10-31T04:22:45;10.60;99.90
13694;DHT22;6919;52.344;14.518;2022-10-31T04:25:13;10.40;99.90
13694;DHT22;6919;52.344;14.518;2022-10-31T04:27:41;10.40;99.90
13694;DHT22;6919;52.344;14.518;2022-10-31T04:30:10;10.40;99.90
13694;DHT22;6919;52.344;14.518;2022-10-31T04:32:38;10.30;99.90
13694;DHT22;6919;52.344;14.518;2022-10-31T04:35:07;10.30;99.90
13694;DHT22;6919;52.344;14.518;2022-10-31T04:37:36;10.30;99.90
13694;DHT22;6919;52.344;14.518;2022-10-31T04:40:05;10.30;99.90
13694;DHT22;6919;52.344;14.518;2022-10-31T04:42:34;10.40;99.90
13694;DHT22;6919;52.344;14.518;2022-10-31T04:45:02;10.40;99.90
13694;DHT22;6919;52.344;14.518;2022-10-31T04:47:31;10.40;99.90
13694;DHT22;6919;52.344;14.518;2022-10-31T04:50:00;10.50;99.90
13694;DHT22;6919;52.344;14.518;2022-10-31T04:52:28;10.50;99.90
13694;DHT22;6919;52.344;14.518;2022-10-31T04:54:58;10.60;99.90
13694;DHT22;6919;52.344;14.518;2022-10-31T04:57:26;10.60;99.90
13694;DHT22;6919;52.344;14.518;2022-10-31T04:59:54;10.60;99.90
13694;DHT22;6919;52.344;14.518;2022-10-31T05:02:22;10.70;99.90
13694;DHT22;6919;52.344;14.518;2022-10-31T05:04:50;10.70;99.90
13694;DHT22;6919;52.344;14.518;2022-10-31T05:07:18;10.70;99.90
13694;DHT22;6919;52.344;14.518;2022-10-31T05:09:46;10.70;99.90
13694;DHT22;6919;52.344;14.518;2022-10-31T05:12:15;10.80;99.90
13694;DHT22;6919;52.344;14.518;2022-10-31T05:14:43;10.80;99.90
13694;DHT22;6919;52.344;14.518;2022-10-31T05:17:14;10.80;99.90
13694;DHT22;6919;52.344;14.518;2022-10-31T05:19:42;10.90;99.90
13694;DHT22;6919;52.344;14.518;2022-10-31T05:22:10;10.80;99.90
13694;DHT22;6919;52.344;14.518;2022-10-31T05:24:38;10.90;99.90
13694;DHT22;6919;52.344;14.518;2022-10-31T05:27:06;10.90;99.90
13694;DHT22;6919;52.344;14.518;2022-10-31T05:29:35;10.80;99.90
13694;DHT22;6919;52.344;14.518;2022-10-31T05:32:04;10.80;99.90
13694;DHT22;6919;52.344;14.518;2022-10-31T05:34:32;10.90;99.90
13694;DHT22;6919;52.344;14.518;2022-10-31T05:37:00;10.80;99.90
13694;DHT22;6919;52.344;14.518;2022-10-31T05:39:28;10.90;99.90
13694;DHT22;6919;52.344;14.518;2022-10-31T05:41:56;11.10;99.90
13694;DHT22;6919;52.344;14.518;2022-10-31T05:44:24;11.00;99.90
13694;DHT22;6919;52.344;14.518;2022-10-31T05:46:53;11.00;99.90
13694;DHT22;6919;52.344;14.518;2022-10-31T05:49:21;11.10;99.90
13694;DHT22;6919;52.344;14.518;2022-10-31T05:51:50;11.10;99.90
13694;DHT22;6919;52.344;14.518;2022-10-31T05:54:18;11.20;99.90
13694;DHT22;6919;52.344;14.518;2022-10-31T05:56:46;11.20;99.90
13694;DHT22;6919;52.344;14.518;2022-10-31T05:59:14;11.10;99.90
13694;DHT22;6919;52.344;14.518;2022-10-31T06:01:42;11.10;99.90
13694;DHT22;6919;52.344;14.518;2022-10-31T06:04:12;11.10;99.90
13694;DHT22;6919;52.344;14.518;2022-10-31T06:06:40;11.20;99.90
13694;DHT22;6919;52.344;14.518;2022-10-31T06:09:08;11.20;99.90
13694;DHT22;6919;52.344;14.518;2022-10-31T06:11:36;11.10;99.90
13694;DHT22;6919;52.344;14.518;2022-10-31T06:14:04;11.10;99.90
13694;DHT22;6919;52.344;14.518;2022-10-31T06:16:33;11.00;99.90
13694;DHT22;6919;52.344;14.518;2022-10-31T06:19:01;10.90;99.90
13694;DHT22;6919;52.344;14.518;2022-10-31T06:21:30;10.90;99.90
13694;DHT22;6919;52.344;14.518;2022-10-31T06:23:58;10.80;99.90
13694;DHT22;6919;52.344;14.518;2022-10-31T06:26:26;10.90;99.90
13694;DHT22;6919;52.344;14.518;2022-10-31T06:28:54;11.00;99.90
13694;DHT22;6919;52.344;14.518;2022-10-31T06:31:29;10.90;99.90
13694;DHT22;6919;52.344;14.518;2022-10-31T06:33:58;10.90;99.90
13694;DHT22;6919;52.344;14.518;2022-10-31T06:36:26;10.80;99.90
13694;DHT22;6919;52.344;14.518;2022-10-31T06:38:55;10.90;99.90
13694;DHT22;6919;52.344;14.518;2022-10-31T06:41:23;11.10;99.90
13694;DHT22;6919;52.344;14.518;2022-10-31T06:43:51;11.20;99.90
13694;DHT22;6919;52.344;14.518;2022-10-31T06:46:19;11.20;99.90
13694;DHT22;6919;52.344;14.518;2022-10-31T06:48:47;11.20;99.90
13694;DHT22;6919;52.344;14.518;2022-10-31T06:51:15;11.30;99.90
13694;DHT22;6919;52.344;14.518;2022-10-31T06:53:43;11.30;99.90
13694;DHT22;6919;52.344;14.518;2022-10-31T06:56:13;11.40;99.90
13694;DHT22;6919;52.344;14.518;2022-10-31T06:58:41;11.50;99.90
13694;DHT22;6919;52.344;14.518;2022-10-31T07:01:09;11.50;99.90
13694;DHT22;6919;52.344;14.518;2022-10-31T07:03:38;11.60;99.90
13694;DHT22;6919;52.344;14.518;2022-10-31T07:06:06;11.70;99.90
13694;DHT22;6919;52.344;14.518;2022-10-31T07:08:34;11.70;99.90
13694;DHT22;6919;52.344;14.518;2022-10-31T07:11:02;11.80;99.90
13694;DHT22;6919;52.344;14.518;2022-10-31T07:13:31;11.90;99.90
13694;DHT22;6919;52.344;14.518;2022-10-31T07:16:01;12.00;99.90
13694;DHT22;6919;52.344;14.518;2022-10-31T07:18:33;12.00;99.90
13694;DHT22;6919;52.344;14.518;2022-10-31T07:21:02;12.20;99.90
13694;DHT22;6919;52.344;14.518;2022-10-31T07:23:31;12.20;99.90
13694;DHT22;6919;52.344;14.518;2022-10-31T07:25:59;12.30;99.90
13694;DHT22;6919;52.344;14.518;2022-10-31T07:28:27;12.40;99.90
13694;DHT22;6919;52.344;14.518;2022-10-31T07:30:57;12.50;99.90
13694;DHT22;6919;52.344;14.518;2022-10-31T07:33:25;12.60;99.90
13694;DHT22;6919;52.344;14.518;2022-10-31T07:35:54;12.70;99.90
13694;DHT22;6919;52.344;14.518;2022-10-31T07:38:22;12.80;99.90
13694;DHT22;6919;52.344;14.518;2022-10-31T07:40:51;12.90;99.90
13694;DHT22;6919;52.344;14.518;2022-10-31T07:43:20;13.00;99.90
13694;DHT22;6919;52.344;14.518;2022-10-31T07:45:51;13.10;99.90
13694;DHT22;6919;52.344;14.518;2022-10-31T07:48:21;13.20;99.90
13694;DHT22;6919;52.344;14.518;2022-10-31T07:50:49;13.20;99.90
13694;DHT22;6919;52.344;14.518;2022-10-31T07:53:17;13.30;99.90
13694;DHT22;6919;52.344;14.518;2022-10-31T07:55:45;13.40;99.90
13694;DHT22;6919;52.344;14.518;2022-10-31T07:58:15;13.30;99.90
13694;DHT22;6919;52.344;14.518;2022-10-31T08:00:45;13.40;99.90
13694;DHT22;6919;52.344;14.518;2022-10-31T08:03:16;13.40;99.90
13694;DHT22;6919;52.344;14.518;2022-10-31T08:05:46;13.40;99.90
13694;DHT22;6919;52.344;14.518;2022-10-31T08:08:15;13.40;99.90
13694;DHT22;6919;52.344;14.518;2022-10-31T08:10:43;13.40;99.90
13694;DHT22;6919;52.344;14.518;2022-10-31T08:13:12;13.40;99.90
13694;DHT22;6919;52.344;14.518;2022-10-31T08:15:41;13.30;99.90
13694;DHT22;6919;52.344;14.518;2022-10-31T08:18:12;13.30;99.90
13694;DHT22;6919;52.344;14.518;2022-10-31T08:20:41;13.20;99.90
13694;DHT22;6919;52.344;14.518;2022-10-31T08:23:12;13.10;99.90
13694;DHT22;6919;52.344;14.518;2022-10-31T08:25:41;13.10;99.90
13694;DHT22;6919;52.344;14.518;2022-10-31T08:28:10;13.00;99.90
13694;DHT22;6919;52.344;14.518;2022-10-31T08:30:39;13.00;99.90
13694;DHT22;6919;52.344;14.518;2022-10-31T08:33:10;12.90;99.90
13694;DHT22;6919;52.344;14.518;2022-10-31T08:35:40;12.90;99.90
13694;DHT22;6919;52.344;14.518;2022-10-31T08:38:09;13.00;99.90
13694;DHT22;6919;52.344;14.518;2022-10-31T08:40:39;13.00;99.90
13694;DHT22;6919;52.344;14.518;2022-10-31T08:43:11;13.00;99.90
13694;DHT22;6919;52.344;14.518;2022-10-31T08:45:41;13.00;99.90
13694;DHT22;6919;52.344;14.518;2022-10-31T08:48:12;13.10;99.90
13694;DHT22;6919;52.344;14.518;2022-10-31T08:50:42;13.20;99.90
13694;DHT22;6919;52.344;14.518;2022-10-31T08:53:12;13.20;99.90
13694;DHT22;6919;52.344;14.518;2022-10-31T08:55:44;13.40;99.90
13694;DHT22;6919;52.344;14.518;2022-10-31T08:58:15;13.50;99.90
13694;DHT22;6919;52.344;14.518;2022-10-31T09:00:45;13.70;99.90
13694;DHT22;6919;52.344;14.518;2022-10-31T09:03:15;13.70;99.90
13694;DHT22;6919;52.344;14.518;2022-10-31T09:05:45;13.80;99.90
13694;DHT22;6919;52.344;14.518;2022-10-31T09:08:14;14.00;99.90
13694;DHT22;6919;52.344;14.518;2022-10-31T09:10:44;14.20;99.90
13694;DHT22;6919;52.344;14.518;2022-10-31T09:13:15;14.30;99.90
13694;DHT22;6919;52.344;14.518;2022-10-31T09:15:46;14.40;99.90
13694;DHT22;6919;52.344;14.518;2022-10-31T09:18:16;14.40;99.90
13694;DHT22;6919;52.344;14.518;2022-10-31T09:20:47;14.50;99.90
13694;DHT22;6919;52.344;14.518;2022-10-31T09:23:17;14.60;99.90
13694;DHT22;6919;52.344;14.518;2022-10-31T09:25:49;14.70;99.90
13694;DHT22;6919;52.344;14.518;2022-10-31T09:28:20;14.90;99.90
13694;DHT22;6919;52.344;14.518;2022-10-31T09:30:52;15.00;99.90
13694;DHT22;6919;52.344;14.518;2022-10-31T09:33:21;15.10;99.90
13694;DHT22;6919;52.344;14.518;2022-10-31T09:35:49;15.20;99.90
13694;DHT22;6919;52.344;14.518;2022-10-31T09:38:20;15.30;99.90
13694;DHT22;6919;52.344;14.518;2022-10-31T09:40:55;15.40;99.90
13694;DHT22;6919;52.344;14.518;2022-10-31T09:43:35;15.60;99.90
13694;DHT22;6919;52.344;14.518;2022-10-31T09:46:13;15.70;99.90
13694;DHT22;6919;52.344;14.518;2022-10-31T09:49:07;15.80;99.90
13694;DHT22;6919;52.344;14.518;2022-10-31T09:51:55;16.00;99.90
13694;DHT22;6919;52.344;14.518;2022-10-31T09:54:33;15.90;99.90
13694;DHT22;6919;52.344;14.518;2022-10-31T09:57:12;15.90;99.90
13694;DHT22;6919;52.344;14.518;2022-10-31T09:59:43;16.00;99.90
13694;DHT22;6919;52.344;14.518;2022-10-31T10:02:17;16.10;99.90
13694;DHT22;6919;52.344;14.518;2022-10-31T10:04:55;16.20;99.90
13694;DHT22;6919;52.344;14.518;2022-10-31T10:07:40;16.20;99.90
13694;DHT22;6919;52.344;14.518;2022-10-31T10:10:18;16.40;99.90
13694;DHT22;6919;52.344;14.518;2022-10-31T10:13:10;16.50;99.90
13694;DHT22;6919;52.344;14.518;2022-10-31T10:16:00;16.50;99.90
13694;DHT22;6919;52.344;14.518;2022-10-31T10:18:54;16.50;99.90
13694;DHT22;6919;52.344;14.518;2022-10-31T10:21:38;16.50;99.90
13694;DHT22;6919;52.344;14.518;2022-10-31T10:24:22;16.60;99.90
13694;DHT22;6919;52.344;14.518;2022-10-31T10:27:05;16.40;99.90
13694;DHT22;6919;52.344;14.518;2022-10-31T10:29:55;16.40;99.90
13694;DHT22;6919;52.344;14.518;2022-10-31T10:32:40;16.50;99.90
13694;DHT22;6919;52.344;14.518;2022-10-31T10:35:22;16.70;99.90
13694;DHT22;6919;52.344;14.518;2022-10-31T10:37:58;16.70;99.90
13694;DHT22;6919;52.344;14.518;2022-10-31T10:40:30;16.80;99.90
13694;DHT22;6919;52.344;14.518;2022-10-31T10:43:09;16.70;99.90
13694;DHT22;6919;52.344;14.518;2022-10-31T10:46:00;16.90;99.90
13694;DHT22;6919;52.344;14.518;2022-10-31T10:49:02;16.80;99.90
13694;DHT22;6919;52.344;14.518;2022-10-31T10:51:40;16.80;99.90
13694;DHT22;6919;52.344;14.518;2022-10-31T10:54:46;16.90;99.90
13694;DHT22;6919;52.344;14.518;2022-10-31T10:57:32;16.90;99.90
13694;DHT22;6919;52.344;14.518;2022-10-31T11:00:17;17.10;99.90
13694;DHT22;6919;52.344;14.518;2022-10-31T11:02:50;17.10;99.90
13694;DHT22;6919;52.344;14.518;2022-10-31T11:05:24;16.90;99.90
13694;DHT22;6919;52.344;14.518;2022-10-31T11:08:00;16.90;99.90
13694;DHT22;6919;52.344;14.518;2022-10-31T11:10:28;17.00;99.90
13694;DHT22;6919;52.344;14.518;2022-10-31T11:13:04;16.80;99.90
13694;DHT22;6919;52.344;14.518;2022-10-31T11:15:51;16.90;99.90
13694;DHT22;6919;52.344;14.518;2022-10-31T11:18:26;17.00;99.90
13694;DHT22;6919;52.344;14.518;2022-10-31T11:20:58;17.10;99.90
13694;DHT22;6919;52.344;14.518;2022-10-31T11:23:28;17.20;99.90
13694;DHT22;6919;52.344;14.518;2022-10-31T11:25:59;17.30;99.90
13694;DHT22;6919;52.344;14.518;2022-10-31T11:28:30;17.30;99.90
13694;DHT22;6919;52.344;14.518;2022-10-31T11:31:06;17.20;99.90
13694;DHT22;6919;52.344;14.518;2022-10-31T11:33:39;17.30;99.90
13694;DHT22;6919;52.344;14.518;2022-10-31T11:36:18;17.50;99.90
13694;DHT22;6919;52.344;14.518;2022-10-31T11:38:50;17.60;99.90
13694;DHT22;6919;52.344;14.518;2022-10-31T11:41:25;17.70;99.90
13694;DHT22;6919;52.344;14.518;2022-10-31T11:43:57;17.40;99.90
13694;DHT22;6919;52.344;14.518;2022-10-31T11:46:32;17.30;99.90
13694;DHT22;6919;52.344;14.518;2022-10-31T11:49:05;17.30;99.90
13694;DHT22;6919;52.344;14.518;2022-10-31T11:51:46;17.20;99.90
13694;DHT22;6919;52.344;14.518;2022-10-31T11:54:21;17.30;99.90
13694;DHT22;6919;52.344;14.518;2022-10-31T11:56:52;17.40;99.90
13694;DHT22;6919;52.344;14.518;2022-10-31T11:59:26;17.40;99.90
13694;DHT22;6919;52.344;14.518;2022-10-31T12:01:58;17.20;99.90
13694;DHT22;6919;52.344;14.518;2022-10-31T12:04:40;17.20;99.90
13694;DHT22;6919;52.344;14.518;2022-10-31T12:07:12;17.20;99.90
13694;DHT22;6919;52.344;14.518;2022-10-31T12:09:40;17.30;99.90
13694;DHT22;6919;52.344;14.518;2022-10-31T12:12:33;17.30;99.90
13694;DHT22;6919;52.344;14.518;2022-10-31T12:15:27;17.40;99.90
13694;DHT22;6919;52.344;14.518;2022-10-31T12:18:09;17.50;99.90
13694;DHT22;6919;52.344;14.518;2022-10-31T12:21:00;17.70;99.90
13694;DHT22;6919;52.344;14.518;2022-10-31T12:23:53;18.00;99.90
13694;DHT22;6919;52.344;14.518;2022-10-31T12:26:34;18.00;99.90
13694;DHT22;6919;52.344;14.518;2022-10-31T12:29:31;18.10;99.90
13694;DHT22;6919;52.344;14.518;2022-10-31T12:32:21;18.20;99.90
13694;DHT22;6919;52.344;14.518;2022-10-31T12:35:09;18.20;99.90
13694;DHT22;6919;52.344;14.518;2022-10-31T12:38:05;18.40;99.90
13694;DHT22;6919;52.344;14.518;2022-10-31T12:41:07;18.40;99.90
13694;DHT22;6919;52.344;14.518;2022-10-31T12:43:46;18.40;99.90
13694;DHT22;6919;52.344;14.518;2022-10-31T12:46:43;18.50;99.90
13694;DHT22;6919;52.344;14.518;2022-10-31T12:49:39;18.70;99.90
13694;DHT22;6919;52.344;14.518;2022-10-31T12:52:27;18.60;99.90
13694;DHT22;6919;52.344;14.518;2022-10-31T12:55:31;18.60;99.90
13694;DHT22;6919;52.344;14.518;2022-10-31T12:58:10;18.60;99.90
13694;DHT22;6919;52.344;14.518;2022-10-31T13:00:47;18.50;99.90
13694;DHT22;6919;52.344;14.518;2022-10-31T13:03:24;18.80;99.90
13694;DHT22;6919;52.344;14.518;2022-10-31T13:05:58;18.90;99.90
13694;DHT22;6919;52.344;14.518;2022-10-31T13:08:36;19.00;99.90
13694;DHT22;6919;52.344;14.518;2022-10-31T13:11:12;19.10;99.90
13694;DHT22;6919;52.344;14.518;2022-10-31T13:13:53;19.10;99.90
13694;DHT22;6919;52.344;14.518;2022-10-31T13:16:30;19.20;99.90
13694;DHT22;6919;52.344;14.518;2022-10-31T13:19:06;19.40;99.90
13694;DHT22;6919;52.344;14.518;2022-10-31T13:21:48;19.80;1.00
13694;DHT22;6919;52.344;14.518;2022-10-31T13:24:30;20.30;99.90
13694;DHT22;6919;52.344;14.518;2022-10-31T13:27:12;20.70;1.00
13694;DHT22;6919;52.344;14.518;2022-10-31T13:29:58;21.10;1.00
13694;DHT22;6919;52.344;14.518;2022-10-31T13:32:37;21.20;99.90
13694;DHT22;6919;52.344;14.518;2022-10-31T13:35:16;21.60;99.90
13694;DHT22;6919;52.344;14.518;2022-10-31T13:38:00;21.80;99.90
13694;DHT22;6919;52.344;14.518;2022-10-31T13:40:42;21.90;1.00
13694;DHT22;6919;52.344;14.518;2022-10-31T13:43:25;22.20;1.00
13694;DHT22;6919;52.344;14.518;2022-10-31T13:45:58;22.30;1.00
13694;DHT22;6919;52.344;14.518;2022-10-31T13:48:36;22.10;99.90
13694;DHT22;6919;52.344;14.518;2022-10-31T13:51:10;21.80;1.00
13694;DHT22;6919;52.344;14.518;2022-10-31T13:53:42;21.90;1.00
13694;DHT22;6919;52.344;14.518;2022-10-31T13:56:18;21.80;11.60
13694;DHT22;6919;52.344;14.518;2022-10-31T13:59:04;21.90;1.00
13694;DHT22;6919;52.344;14.518;2022-10-31T14:01:51;21.70;1.00
13694;DHT22;6919;52.344;14.518;2022-10-31T14:04:24;21.40;1.00
13694;DHT22;6919;52.344;14.518;2022-10-31T14:06:59;21.40;1.00
13694;DHT22;6919;52.344;14.518;2022-10-31T14:09:35;21.50;91.00
13694;DHT22;6919;52.344;14.518;2022-10-31T14:12:08;21.20;99.90
13694;DHT22;6919;52.344;14.518;2022-10-31T14:14:44;20.90;1.00
13694;DHT22;6919;52.344;14.518;2022-10-31T14:17:22;20.60;99.90
13694;DHT22;6919;52.344;14.518;2022-10-31T14:20:00;20.30;99.90
13694;DHT22;6919;52.344;14.518;2022-10-31T14:22:51;20.00;1.00
13694;DHT22;6919;52.344;14.518;2022-10-31T14:25:28;19.90;1.00
13694;DHT22;6919;52.344;14.518;2022-10-31T14:27:59;19.70;1.00
13694;DHT22;6919;52.344;14.518;2022-10-31T14:30:31;19.50;1.00
13694;DHT22;6919;52.344;14.518;2022-10-31T14:33:02;19.00;1.00
13694;DHT22;6919;52.344;14.518;2022-10-31T14:35:53;18.80;1.00
13694;DHT22;6919;52.344;14.518;2022-10-31T14:38:35;18.50;1.00
13694;DHT22;6919;52.344;14.518;2022-10-31T14:41:27;18.40;1.00
13694;DHT22;6919;52.344;14.518;2022-10-31T14:44:39;18.10;1.00
13694;DHT22;6919;52.344;14.518;2022-10-31T14:47:24;17.90;25.40
13694;DHT22;6919;52.344;14.518;2022-10-31T14:50:24;17.60;50.00
13694;DHT22;6919;52.344;14.518;2022-10-31T14:53:14;17.50;74.00
13694;DHT22;6919;52.344;14.518;2022-10-31T14:55:49;17.30;48.80
13694;DHT22;6919;52.344;14.518;2022-10-31T14:58:23;17.20;13.00
13694;DHT22;6919;52.344;14.518;2022-10-31T15:00:58;17.10;22.40
13694;DHT22;6919;52.344;14.518;2022-10-31T15:03:33;17.00;35.00
13694;DHT22;6919;52.344;14.518;2022-10-31T15:06:17;16.90;54.40
13694;DHT22;6919;52.344;14.518;2022-10-31T15:08:49;16.70;69.50
13694;DHT22;6919;52.344;14.518;2022-10-31T15:11:21;16.60;90.70
13694;DHT22;6919;52.344;14.518;2022-10-31T15:13:52;16.70;91.50
13694;DHT22;6919;52.344;14.518;2022-10-31T15:16:24;16.60;88.60
13694;DHT22;6919;52.344;14.518;2022-10-31T15:18:58;16.50;94.40
13694;DHT22;6919;52.344;14.518;2022-10-31T15:21:28;16.30;99.90
13694;DHT22;6919;52.344;14.518;2022-10-31T15:24:00;16.10;99.90
13694;DHT22;6919;52.344;14.518;2022-10-31T15:26:34;16.00;99.90
13694;DHT22;6919;52.344;14.518;2022-10-31T15:29:13;15.80;99.90
13694;DHT22;6919;52.344;14.518;2022-10-31T15:31:49;15.80;99.90
13694;DHT22;6919;52.344;14.518;2022-10-31T15:34:22;15.80;99.90
13694;DHT22;6919;52.344;14.518;2022-10-31T15:36:56;15.70;99.90
13694;DHT22;6919;52.344;14.518;2022-10-31T15:39:25;15.60;99.90
13694;DHT22;6919;52.344;14.518;2022-10-31T15:41:54;15.50;99.90
13694;DHT22;6919;52.344;14.518;2022-10-31T15:44:26;15.40;99.90
13694;DHT22;6919;52.344;14.518;2022-10-31T15:46:58;15.30;99.90
13694;DHT22;6919;52.344;14.518;2022-10-31T15:49:35;15.10;99.90
13694;DHT22;6919;52.344;14.518;2022-10-31T15:52:09;15.00;99.90
13694;DHT22;6919;52.344;14.518;2022-10-31T15:54:47;14.80;99.90
13694;DHT22;6919;52.344;14.518;2022-10-31T15:57:19;14.80;99.90
13694;DHT22;6919;52.344;14.518;2022-10-31T15:59:48;14.70;99.90
13694;DHT22;6919;52.344;14.518;2022-10-31T16:02:20;14.80;99.90
13694;DHT22;6919;52.344;14.518;2022-10-31T16:04:54;14.70;99.90
13694;DHT22;6919;52.344;14.518;2022-10-31T16:07:24;14.60;99.90
13694;DHT22;6919;52.344;14.518;2022-10-31T16:09:55;14.70;99.90
13694;DHT22;6919;52.344;14.518;2022-10-31T16:12:27;14.60;99.90
13694;DHT22;6919;52.344;14.518;2022-10-31T16:14:58;14.50;99.90
13694;DHT22;6919;52.344;14.518;2022-10-31T16:17:26;14.50;99.90